createdAt,value
2019-01-10T00:01:53.422Z,1.00
2019-01-10T00:03:58.749Z,0.90
2019-01-10T00:06:03.514Z,0.90
2019-01-10T00:08:11.049Z,1.00
2019-01-10T00:10:19.417Z,1.00
2019-01-10T00:12:24.295Z,1.00
2019-01-10T00:14:29.435Z,1.00
2019-01-10T00:16:34.679Z,1.00
2019-01-10T00:18:58.853Z,1.00
2019-01-10T00:21:03.808Z,1.00
2019-01-10T00:23:08.652Z,1.00
2019-01-10T00:25:14.926Z,1.00
2019-01-10T00:27:19.831Z,1.10
2019-01-10T00:29:24.666Z,1.00
2019-01-10T00:31:29.621Z,1.00
2019-01-10T00:33:34.493Z,1.00
2019-01-10T00:35:42.484Z,0.90
2019-01-10T00:37:47.952Z,1.00
2019-01-10T00:39:52.720Z,0.90
2019-01-10T00:41:57.671Z,0.90
2019-01-10T00:44:02.500Z,0.80
2019-01-10T00:46:07.394Z,0.80
2019-01-10T00:48:12.206Z,0.80
2019-01-10T00:50:19.516Z,0.70
2019-01-10T00:52:24.315Z,0.70
2019-01-10T00:54:29.143Z,0.70
2019-01-10T00:56:34.523Z,0.70
2019-01-10T00:58:39.411Z,0.70
2019-01-10T01:00:44.584Z,0.70
2019-01-10T01:02:49.945Z,0.60
2019-01-10T01:04:55.169Z,0.60
2019-01-10T01:06:59.988Z,0.60
2019-01-10T01:09:06.817Z,0.60
2019-01-10T01:11:11.669Z,0.60
2019-01-10T01:13:16.832Z,0.50
2019-01-10T01:15:21.715Z,0.50
2019-01-10T01:17:26.985Z,0.40
2019-01-10T01:19:32.115Z,0.40
2019-01-10T01:21:37.255Z,0.40
2019-01-10T01:23:42.482Z,0.40
2019-01-10T01:25:47.610Z,0.30
2019-01-10T01:27:52.676Z,0.30
2019-01-10T01:29:57.912Z,0.40
2019-01-10T01:32:03.741Z,0.30
2019-01-10T01:34:09.058Z,0.30
2019-01-10T01:36:14.164Z,0.30
2019-01-10T01:38:20.049Z,0.20
2019-01-10T01:40:25.172Z,0.20
2019-01-10T01:42:29.947Z,0.20
2019-01-10T01:44:35.140Z,0.20
2019-01-10T01:46:40.371Z,0.20
2019-01-10T01:48:45.466Z,0.30
2019-01-10T01:50:50.286Z,0.30
2019-01-10T01:52:55.060Z,0.20
2019-01-10T01:54:59.892Z,0.30
2019-01-10T01:57:04.659Z,0.30
2019-01-10T01:59:09.508Z,0.30
2019-01-10T02:01:14.748Z,0.20
2019-01-10T02:03:19.998Z,0.20
2019-01-10T02:05:24.894Z,0.10
2019-01-10T02:07:30.028Z,0.10
2019-01-10T02:09:37.444Z,0.10
2019-01-10T02:11:42.316Z,0.10
2019-01-10T02:13:47.671Z,0.10
2019-01-10T02:15:54.186Z,0.00
2019-01-10T02:17:59.022Z,0.00
2019-01-10T02:20:04.657Z,0.10
2019-01-10T02:22:09.566Z,0.00
2019-01-10T02:24:15.476Z,0.00
2019-01-10T02:26:20.455Z,-0.10
2019-01-10T02:28:25.242Z,-0.10
2019-01-10T02:30:30.121Z,-0.10
2019-01-10T02:32:34.973Z,-0.10
2019-01-10T02:34:39.904Z,-0.10
2019-01-10T02:36:45.094Z,-0.10
2019-01-10T02:38:49.858Z,-0.10
2019-01-10T02:40:54.750Z,-0.20
2019-01-10T02:43:00.283Z,-0.20
2019-01-10T02:45:06.304Z,-0.20
2019-01-10T02:47:11.333Z,-0.10
2019-01-10T02:49:16.816Z,-0.10
2019-01-10T02:51:22.097Z,-0.10
2019-01-10T02:53:26.905Z,0.00
2019-01-10T02:55:32.074Z,0.00
2019-01-10T02:57:36.860Z,-0.10
2019-01-10T02:59:41.614Z,0.00
2019-01-10T03:01:46.395Z,0.00
2019-01-10T03:03:51.126Z,0.00
2019-01-10T03:05:55.969Z,-0.10
2019-01-10T03:08:01.063Z,-0.10
2019-01-10T03:10:08.336Z,-0.10
2019-01-10T03:12:13.237Z,0.00
2019-01-10T03:14:18.380Z,0.00
2019-01-10T03:16:23.109Z,0.00
2019-01-10T03:18:27.851Z,0.10
2019-01-10T03:20:32.616Z,0.00
2019-01-10T03:22:37.421Z,0.00
2019-01-10T03:24:42.348Z,0.00
2019-01-10T03:26:47.425Z,0.10
2019-01-10T03:28:52.178Z,0.10
2019-01-10T03:30:56.939Z,0.00
2019-01-10T03:33:01.759Z,0.00
2019-01-10T03:35:08.445Z,0.00
2019-01-10T03:37:13.176Z,0.10
2019-01-10T03:39:17.945Z,0.10
2019-01-10T03:41:22.897Z,0.10
2019-01-10T03:43:27.635Z,0.10
2019-01-10T03:45:32.795Z,0.10
2019-01-10T03:47:37.517Z,0.10
2019-01-10T03:49:42.330Z,0.20
2019-01-10T03:51:47.793Z,0.20
2019-01-10T03:53:52.540Z,0.20
2019-01-10T03:55:57.426Z,0.30
2019-01-10T03:58:02.173Z,0.20
2019-01-10T04:00:10.282Z,0.20
2019-01-10T04:02:16.280Z,0.10
2019-01-10T04:04:21.016Z,0.20
2019-01-10T04:06:25.864Z,0.20
2019-01-10T04:08:30.832Z,0.10
2019-01-10T04:10:39.575Z,0.10
2019-01-10T04:12:44.607Z,0.10
2019-01-10T04:14:52.870Z,0.10
2019-01-10T04:16:57.677Z,0.10
2019-01-10T04:19:02.477Z,0.10
2019-01-10T04:21:16.685Z,0.20
2019-01-10T04:23:13.848Z,0.30
2019-01-10T04:25:19.076Z,0.30
2019-01-10T04:27:24.563Z,0.30
2019-01-10T04:29:29.307Z,0.30
2019-01-10T04:31:34.094Z,0.30
2019-01-10T04:33:38.934Z,0.30
2019-01-10T04:35:43.703Z,0.40
2019-01-10T04:37:48.866Z,0.30
2019-01-10T04:39:53.948Z,0.30
2019-01-10T04:41:58.653Z,0.30
2019-01-10T04:44:07.153Z,0.20
2019-01-10T04:46:09.814Z,0.20
2019-01-10T04:48:14.598Z,0.30
2019-01-10T04:50:19.848Z,0.30
2019-01-10T04:52:24.573Z,0.30
2019-01-10T04:54:29.641Z,0.30
2019-01-10T04:56:34.359Z,0.30
2019-01-10T04:58:39.086Z,0.30
2019-01-10T05:00:43.848Z,0.30
2019-01-10T05:02:49.073Z,0.40
2019-01-10T05:04:53.842Z,0.40
2019-01-10T05:06:58.792Z,0.40
2019-01-10T05:09:04.075Z,0.50
2019-01-10T05:11:11.346Z,0.50
2019-01-10T05:13:16.391Z,0.50
2019-01-10T05:15:21.503Z,0.50
2019-01-10T05:17:26.274Z,0.40
2019-01-10T05:19:31.350Z,0.40
2019-01-10T05:21:36.129Z,0.50
2019-01-10T05:23:40.835Z,0.40
2019-01-10T05:25:45.537Z,0.50
2019-01-10T05:27:50.334Z,0.50
2019-01-10T05:29:55.217Z,0.50
2019-01-10T05:32:02.465Z,0.40
2019-01-10T05:34:06.671Z,0.40
2019-01-10T05:36:11.381Z,0.50
2019-01-10T05:38:16.283Z,0.60
2019-01-10T05:40:21.570Z,0.50
2019-01-10T05:42:26.273Z,0.40
2019-01-10T05:44:31.960Z,0.40
2019-01-10T05:46:37.164Z,0.40
2019-01-10T05:48:46.964Z,0.50
2019-01-10T05:50:48.734Z,0.50
2019-01-10T05:52:56.597Z,0.50
2019-01-10T05:55:02.150Z,0.50
2019-01-10T05:57:07.247Z,0.50
2019-01-10T05:59:11.977Z,0.40
2019-01-10T06:01:17.199Z,0.50
2019-01-10T06:03:21.974Z,0.50
2019-01-10T06:05:26.902Z,0.50
2019-01-10T06:07:32.499Z,0.40
2019-01-10T06:09:38.439Z,0.50
2019-01-10T06:11:43.223Z,0.40
2019-01-10T06:13:48.399Z,0.40
2019-01-10T06:15:53.208Z,0.40
2019-01-10T06:17:58.408Z,0.40
2019-01-10T06:20:03.593Z,0.50
2019-01-10T06:22:18.847Z,0.50
2019-01-10T06:24:24.116Z,0.40
2019-01-10T06:26:28.932Z,0.40
2019-01-10T06:28:33.807Z,0.50
2019-01-10T06:30:38.990Z,0.50
2019-01-10T06:32:44.506Z,0.50
2019-01-10T06:34:49.214Z,0.50
2019-01-10T06:36:54.447Z,0.50
2019-01-10T06:39:01.707Z,0.50
2019-01-10T06:41:06.347Z,0.50
2019-01-10T06:43:11.558Z,0.50
2019-01-10T06:45:16.768Z,0.50
2019-01-10T06:47:21.788Z,0.40
2019-01-10T06:49:26.908Z,0.40
2019-01-10T06:51:31.636Z,0.50
2019-01-10T06:53:36.583Z,0.50
2019-01-10T06:55:42.651Z,0.50
2019-01-10T06:57:47.666Z,0.50
2019-01-10T06:59:52.355Z,0.50
2019-01-10T07:01:57.392Z,0.50
2019-01-10T07:04:02.139Z,0.50
2019-01-10T07:06:06.877Z,0.40
2019-01-10T07:08:12.405Z,0.40
2019-01-10T07:10:23.343Z,0.50
2019-01-10T07:12:28.034Z,0.50
2019-01-10T07:14:33.226Z,0.50
2019-01-10T07:16:38.457Z,0.50
2019-01-10T07:18:43.209Z,0.50
2019-01-10T07:20:48.322Z,0.50
2019-01-10T07:22:54.360Z,0.50
2019-01-10T07:24:59.343Z,0.50
2019-01-10T07:27:04.169Z,0.40
2019-01-10T07:29:10.383Z,0.50
2019-01-10T07:31:31.492Z,0.40
2019-01-10T07:33:39.018Z,0.50
2019-01-10T07:35:43.844Z,0.50
2019-01-10T07:37:58.717Z,0.60
2019-01-10T07:40:03.507Z,0.60
2019-01-10T07:42:08.628Z,0.60
2019-01-10T07:44:13.340Z,0.60
2019-01-10T07:46:18.054Z,0.60
2019-01-10T07:48:22.819Z,0.60
2019-01-10T07:50:33.072Z,0.60
2019-01-10T07:52:37.864Z,0.50
2019-01-10T07:54:42.989Z,0.60
2019-01-10T07:56:47.721Z,0.60
2019-01-10T07:58:52.497Z,0.60
2019-01-10T08:00:57.249Z,0.60
2019-01-10T08:03:02.182Z,0.60
2019-01-10T08:05:07.138Z,0.60
2019-01-10T08:07:12.278Z,0.60
2019-01-10T08:09:17.705Z,0.60
2019-01-10T08:11:22.585Z,0.60
2019-01-10T08:13:27.763Z,0.60
2019-01-10T08:15:35.348Z,0.60
2019-01-10T08:17:40.221Z,0.60
2019-01-10T08:19:44.981Z,0.70
2019-01-10T08:21:49.734Z,0.70
2019-01-10T08:23:54.451Z,0.70
2019-01-10T08:26:00.096Z,0.70
2019-01-10T08:28:05.124Z,0.70
2019-01-10T08:30:14.299Z,0.70
2019-01-10T08:32:19.580Z,0.70
2019-01-10T08:34:24.295Z,0.70
2019-01-10T08:36:32.535Z,0.70
2019-01-10T08:38:35.385Z,0.70
2019-01-10T08:40:40.102Z,0.70
2019-01-10T08:42:44.917Z,0.70
2019-01-10T08:44:49.600Z,0.70
2019-01-10T08:46:54.317Z,0.70
2019-01-10T08:48:59.240Z,0.80
2019-01-10T08:51:04.747Z,0.90
2019-01-10T08:53:09.711Z,0.80
2019-01-10T08:55:14.523Z,0.80
2019-01-10T08:57:19.219Z,0.90
2019-01-10T08:59:24.385Z,0.80
2019-01-10T09:01:29.250Z,0.80
2019-01-10T09:03:34.073Z,0.80
2019-01-10T09:05:39.244Z,0.80
2019-01-10T09:07:43.994Z,0.90
2019-01-10T09:09:51.872Z,0.90
2019-01-10T09:11:56.672Z,0.90
2019-01-10T09:14:01.520Z,0.90
2019-01-10T09:16:06.319Z,0.90
2019-01-10T09:18:11.159Z,1.00
2019-01-10T09:20:16.169Z,1.00
2019-01-10T09:22:23.666Z,1.00
2019-01-10T09:24:28.719Z,1.00
2019-01-10T09:26:37.657Z,1.00
2019-01-10T09:28:43.785Z,1.10
2019-01-10T09:30:48.538Z,1.00
2019-01-10T09:32:53.675Z,1.00
2019-01-10T09:34:58.385Z,1.00
2019-01-10T09:37:03.962Z,1.00
2019-01-10T09:39:10.080Z,1.10
2019-01-10T09:41:14.784Z,1.10
2019-01-10T09:43:19.951Z,1.10
2019-01-10T09:45:26.114Z,1.00
2019-01-10T09:47:30.937Z,1.10
2019-01-10T09:49:36.131Z,1.10
2019-01-10T09:51:41.062Z,1.10
2019-01-10T09:53:45.898Z,1.20
2019-01-10T09:55:50.714Z,1.20
2019-01-10T09:57:55.518Z,1.30
2019-01-10T10:00:00.348Z,1.30
2019-01-10T10:02:05.597Z,1.30
2019-01-10T10:04:10.774Z,1.40
2019-01-10T10:06:15.495Z,1.40
2019-01-10T10:08:20.291Z,1.50
2019-01-10T10:10:25.774Z,1.50
2019-01-10T10:12:30.533Z,1.50
2019-01-10T10:14:35.297Z,1.50
2019-01-10T10:16:40.068Z,1.60
2019-01-10T10:18:44.932Z,1.60
2019-01-10T10:20:50.184Z,1.70
2019-01-10T10:22:55.186Z,1.70
2019-01-10T10:24:59.948Z,1.70
2019-01-10T10:27:05.267Z,1.70
2019-01-10T10:29:10.211Z,1.80
2019-01-10T10:31:14.983Z,1.80
2019-01-10T10:33:19.742Z,1.80
2019-01-10T10:35:26.865Z,1.80
2019-01-10T10:37:34.364Z,1.80
2019-01-10T10:39:46.843Z,1.90
2019-01-10T10:41:53.236Z,1.90
2019-01-10T10:44:05.232Z,1.90
2019-01-10T10:46:15.051Z,1.90
2019-01-10T10:48:24.717Z,1.90
2019-01-10T10:50:35.115Z,2.00
2019-01-10T10:52:44.405Z,2.00
2019-01-10T10:54:53.022Z,2.10
2019-01-10T10:57:03.171Z,2.10
2019-01-10T10:59:22.697Z,2.10
2019-01-10T11:01:31.885Z,2.10
2019-01-10T11:03:39.093Z,2.20
2019-01-10T11:05:43.994Z,2.20
2019-01-10T11:07:49.014Z,2.20
2019-01-10T11:09:58.317Z,2.20
2019-01-10T11:12:11.019Z,2.30
2019-01-10T11:14:16.988Z,2.30
2019-01-10T11:16:25.325Z,2.30
2019-01-10T11:18:31.765Z,2.30
2019-01-10T11:20:37.569Z,2.40
2019-01-10T11:22:51.816Z,2.60
2019-01-10T11:24:56.794Z,2.70
2019-01-10T11:27:06.799Z,2.70
2019-01-10T11:29:17.361Z,2.80
2019-01-10T11:31:24.152Z,2.80
2019-01-10T11:33:30.654Z,2.80
2019-01-10T11:35:36.841Z,2.90
2019-01-10T11:37:43.079Z,2.90
2019-01-10T11:39:49.345Z,3.00
2019-01-10T11:41:56.991Z,3.00
2019-01-10T11:44:04.534Z,3.00
2019-01-10T11:46:10.036Z,3.00
2019-01-10T11:48:16.034Z,3.10
2019-01-10T11:50:24.498Z,3.20
2019-01-10T11:52:31.178Z,3.30
2019-01-10T11:54:40.163Z,3.40
2019-01-10T11:56:45.429Z,3.40
2019-01-10T11:58:52.937Z,3.40
2019-01-10T12:00:57.968Z,3.60
2019-01-10T12:03:08.092Z,3.70
2019-01-10T12:05:13.179Z,3.80
2019-01-10T12:07:23.411Z,3.90
2019-01-10T12:09:30.233Z,3.80
2019-01-10T12:11:35.543Z,3.80
2019-01-10T12:13:40.347Z,3.80
2019-01-10T12:15:45.183Z,3.90
2019-01-10T12:17:50.064Z,3.90
2019-01-10T12:19:56.738Z,4.00
2019-01-10T12:22:01.685Z,4.10
2019-01-10T12:24:06.437Z,4.20
2019-01-10T12:26:11.667Z,4.20
2019-01-10T12:28:33.164Z,4.20
2019-01-10T12:30:38.205Z,4.20
2019-01-10T12:32:43.088Z,4.10
2019-01-10T12:34:48.252Z,4.10
2019-01-10T12:37:00.301Z,4.10
2019-01-10T12:38:59.978Z,4.10
2019-01-10T12:41:04.852Z,4.00
2019-01-10T12:43:09.768Z,4.00
2019-01-10T12:45:16.066Z,4.00
2019-01-10T12:47:21.974Z,4.00
2019-01-10T12:49:26.716Z,4.00
2019-01-10T12:51:31.776Z,3.90
2019-01-10T12:53:36.533Z,3.90
2019-01-10T12:55:44.415Z,3.90
2019-01-10T12:57:49.303Z,3.90
2019-01-10T12:59:54.071Z,3.90
2019-01-10T13:01:58.850Z,3.90
2019-01-10T13:04:03.618Z,3.90
2019-01-10T13:06:08.381Z,3.90
2019-01-10T13:08:13.183Z,3.90
2019-01-10T13:10:19.863Z,3.90
2019-01-10T13:12:24.968Z,3.90
2019-01-10T13:14:29.773Z,3.90
2019-01-10T13:16:34.561Z,3.90
2019-01-10T13:18:39.351Z,4.00
2019-01-10T13:20:44.276Z,4.00
2019-01-10T13:22:49.294Z,4.00
2019-01-10T13:24:54.133Z,4.00
2019-01-10T13:26:59.263Z,4.00
2019-01-10T13:29:04.322Z,4.00
2019-01-10T13:31:09.108Z,3.90
2019-01-10T13:33:14.421Z,3.90
2019-01-10T13:35:19.343Z,3.90
2019-01-10T13:37:24.075Z,3.80
2019-01-10T13:39:29.069Z,3.90
2019-01-10T13:41:33.735Z,3.90
2019-01-10T13:43:48.630Z,3.80
2019-01-10T13:45:55.531Z,3.90
2019-01-10T13:48:00.324Z,3.80
2019-01-10T13:50:17.818Z,3.80
2019-01-10T13:52:22.964Z,3.80
2019-01-10T13:54:27.625Z,3.80
2019-01-10T13:56:32.404Z,3.80
2019-01-10T13:58:37.135Z,3.80
2019-01-10T14:00:41.821Z,3.90
2019-01-10T14:02:47.004Z,3.90
2019-01-10T14:04:51.694Z,3.90
2019-01-10T14:06:56.456Z,3.80
2019-01-10T14:09:01.331Z,3.80
2019-01-10T14:11:06.614Z,3.80
2019-01-10T14:13:11.738Z,3.80
2019-01-10T14:15:22.637Z,3.90
2019-01-10T14:17:27.709Z,3.90
2019-01-10T14:19:32.740Z,3.90
2019-01-10T14:21:37.868Z,3.80
2019-01-10T14:23:45.317Z,3.80
2019-01-10T14:25:50.073Z,3.80
2019-01-10T14:27:59.485Z,3.70
2019-01-10T14:30:01.430Z,3.70
2019-01-10T14:32:06.194Z,3.70
2019-01-10T14:34:14.197Z,3.60
2019-01-10T14:36:17.490Z,3.70
2019-01-10T14:38:22.329Z,3.70
2019-01-10T14:40:27.211Z,3.70
2019-01-10T14:42:32.158Z,3.60
2019-01-10T14:44:42.973Z,3.60
2019-01-10T14:46:47.930Z,3.60
2019-01-10T14:48:53.255Z,3.60
2019-01-10T14:51:01.622Z,3.60
2019-01-10T14:53:07.375Z,3.60
2019-01-10T14:55:12.956Z,3.60
2019-01-10T14:57:17.791Z,3.60
2019-01-10T14:59:22.875Z,3.50
2019-01-10T15:01:27.734Z,3.50
2019-01-10T15:03:32.666Z,3.50
2019-01-10T15:05:37.459Z,3.50
2019-01-10T15:07:42.403Z,3.40
2019-01-10T15:09:47.301Z,3.50
2019-01-10T15:11:52.195Z,3.40
2019-01-10T15:13:56.947Z,3.40
2019-01-10T15:16:07.445Z,3.40
2019-01-10T15:18:12.362Z,3.40
2019-01-10T15:20:19.980Z,3.40
2019-01-10T15:22:24.843Z,3.40
2019-01-10T15:24:29.630Z,3.40
2019-01-10T15:26:34.454Z,3.30
2019-01-10T15:28:39.667Z,3.20
2019-01-10T15:30:45.036Z,3.20
2019-01-10T15:32:57.847Z,3.20
2019-01-10T15:35:02.716Z,3.20
2019-01-10T15:37:07.594Z,3.20
2019-01-10T15:39:12.892Z,3.10
2019-01-10T15:41:18.074Z,3.10
2019-01-10T15:43:22.870Z,3.10
2019-01-10T15:45:28.232Z,3.00
2019-01-10T15:47:33.462Z,3.10
2019-01-10T15:49:38.382Z,3.10
2019-01-10T15:51:43.882Z,3.10
2019-01-10T15:53:48.720Z,3.10
2019-01-10T15:55:59.455Z,3.00
2019-01-10T15:58:07.198Z,3.00
2019-01-10T16:00:16.277Z,3.00
2019-01-10T16:02:22.199Z,3.00
2019-01-10T16:04:27.047Z,3.00
2019-01-10T16:06:31.845Z,2.90
2019-01-10T16:08:36.605Z,2.90
2019-01-10T16:10:41.362Z,2.90
2019-01-10T16:12:46.194Z,2.80
2019-01-10T16:14:51.165Z,2.80
2019-01-10T16:16:56.293Z,2.80
2019-01-10T16:19:02.212Z,2.80
2019-01-10T16:21:07.097Z,2.80
2019-01-10T16:23:11.833Z,2.80
2019-01-10T16:25:17.014Z,2.70
2019-01-10T16:27:21.748Z,2.70
2019-01-10T16:29:26.958Z,2.60
2019-01-10T16:31:32.191Z,2.60
2019-01-10T16:33:37.556Z,2.70
2019-01-10T16:35:42.427Z,2.70
2019-01-10T16:37:47.479Z,2.70
2019-01-10T16:39:52.997Z,2.70
2019-01-10T16:41:57.879Z,2.70
2019-01-10T16:44:08.877Z,2.70
2019-01-10T16:46:13.905Z,2.70
2019-01-10T16:48:18.870Z,2.80
2019-01-10T16:50:29.959Z,2.80
2019-01-10T16:52:34.758Z,2.80
2019-01-10T16:54:41.667Z,2.80
2019-01-10T16:56:48.461Z,2.80
2019-01-10T16:58:54.093Z,2.80
2019-01-10T17:00:59.183Z,2.80
2019-01-10T17:03:04.581Z,2.70
2019-01-10T17:05:09.528Z,2.80
2019-01-10T17:07:15.404Z,2.80
2019-01-10T17:09:20.764Z,2.80
2019-01-10T17:11:28.669Z,2.80
2019-01-10T17:13:33.897Z,2.70
2019-01-10T17:15:39.124Z,2.80
2019-01-10T17:17:53.180Z,2.80
2019-01-10T17:20:01.019Z,2.80
2019-01-10T17:22:06.267Z,2.80
2019-01-10T17:24:11.300Z,2.80
2019-01-10T17:26:16.590Z,2.80
2019-01-10T17:28:22.198Z,2.80
2019-01-10T17:30:29.015Z,2.80
2019-01-10T17:32:33.923Z,2.80
2019-01-10T17:34:38.765Z,2.80
2019-01-10T17:36:43.580Z,2.80
2019-01-10T17:38:48.732Z,2.80
2019-01-10T17:40:55.343Z,2.80
2019-01-10T17:43:00.307Z,2.80
2019-01-10T17:45:05.796Z,2.80
2019-01-10T17:47:11.455Z,2.80
2019-01-10T17:49:16.292Z,2.80
2019-01-10T17:51:21.202Z,2.70
2019-01-10T17:53:26.201Z,2.70
2019-01-10T17:55:31.268Z,2.70
2019-01-10T17:57:36.190Z,2.70
2019-01-10T17:59:41.575Z,2.70
2019-01-10T18:01:46.950Z,2.70
2019-01-10T18:03:51.877Z,2.80
2019-01-10T18:05:59.406Z,2.70
2019-01-10T18:08:05.529Z,2.70
2019-01-10T18:10:13.999Z,2.70
2019-01-10T18:12:19.986Z,2.70
2019-01-10T18:14:28.488Z,2.70
2019-01-10T18:16:33.905Z,2.80
2019-01-10T18:18:41.024Z,2.80
2019-01-10T18:20:45.857Z,2.70
2019-01-10T18:22:50.818Z,2.70
2019-01-10T18:24:55.795Z,2.70
2019-01-10T18:27:00.764Z,2.70
2019-01-10T18:29:06.222Z,2.70
2019-01-10T18:31:11.350Z,2.70
2019-01-10T18:33:16.697Z,2.70
2019-01-10T18:35:26.579Z,2.70
2019-01-10T18:37:33.052Z,2.80
2019-01-10T18:39:41.059Z,2.70
2019-01-10T18:41:46.351Z,2.80
2019-01-10T18:43:51.686Z,2.70
2019-01-10T18:45:56.563Z,2.70
2019-01-10T18:48:01.848Z,2.70
2019-01-10T18:50:09.670Z,2.60
2019-01-10T18:52:14.493Z,2.70
2019-01-10T18:54:21.439Z,2.70
2019-01-10T18:56:26.937Z,2.70
2019-01-10T18:58:37.231Z,2.70
2019-01-10T19:01:15.800Z,2.70
2019-01-10T19:03:41.113Z,2.60
2019-01-10T19:11:07.887Z,2.60
2019-01-10T19:13:14.013Z,2.60
2019-01-10T19:15:22.846Z,2.70
2019-01-10T19:17:29.058Z,2.60
2019-01-10T19:19:34.438Z,2.60
2019-01-10T19:21:41.342Z,2.60
2019-01-10T19:23:50.409Z,2.60
2019-01-10T19:25:56.128Z,2.50
2019-01-10T19:28:01.292Z,2.50
2019-01-10T19:30:10.669Z,2.50
2019-01-10T19:32:16.747Z,2.40
2019-01-10T19:34:26.503Z,2.40
2019-01-10T19:45:20.745Z,2.30
2019-01-10T19:47:56.571Z,2.30
2019-01-10T19:50:24.945Z,2.30
2019-01-10T19:52:39.724Z,2.20
2019-01-10T19:55:12.454Z,2.20
2019-01-10T19:57:24.244Z,2.20
2019-01-10T19:59:29.499Z,2.10
2019-01-10T20:01:37.694Z,2.10
2019-01-10T20:03:41.728Z,2.10
2019-01-10T20:05:46.890Z,2.10
2019-01-10T20:07:51.962Z,2.10
2019-01-10T20:09:57.594Z,2.10
2019-01-10T20:12:02.771Z,2.10
2019-01-10T20:14:26.193Z,2.00
2019-01-10T20:16:33.621Z,2.10
2019-01-10T20:18:38.375Z,2.00
2019-01-10T20:20:43.865Z,2.00
2019-01-10T20:22:48.941Z,2.00
2019-01-10T20:24:53.747Z,2.00
2019-01-10T20:26:58.791Z,2.10
2019-01-10T20:29:03.573Z,2.10
2019-01-10T20:31:08.400Z,2.00
2019-01-10T20:33:13.161Z,2.00
2019-01-10T20:35:18.361Z,2.00
2019-01-10T20:37:23.611Z,2.00
2019-01-10T20:39:28.603Z,2.00
2019-01-10T20:41:33.405Z,1.90
2019-01-10T20:43:38.291Z,1.90
2019-01-10T20:45:43.463Z,1.90
2019-01-10T20:47:49.516Z,1.90
2019-01-10T20:49:54.628Z,1.90
2019-01-10T20:52:03.500Z,1.90
2019-01-10T20:54:09.882Z,1.90
2019-01-10T20:56:15.809Z,2.00
2019-01-10T20:58:29.883Z,2.00
2019-01-10T21:00:34.704Z,2.00
2019-01-10T21:03:00.061Z,2.00
2019-01-10T21:05:05.656Z,2.00
2019-01-10T21:07:14.940Z,1.90
2019-01-10T21:09:20.155Z,1.90
2019-01-10T21:11:29.686Z,2.00
2019-01-10T21:13:34.855Z,2.00
2019-01-10T21:15:41.279Z,1.90
2019-01-10T21:17:46.957Z,1.90
2019-01-10T21:19:52.252Z,2.00
2019-01-10T21:21:57.224Z,2.00
2019-01-10T21:24:02.205Z,2.00
2019-01-10T21:26:07.031Z,2.00
2019-01-10T21:28:12.318Z,1.90
2019-01-10T21:30:18.987Z,1.90
2019-01-10T21:32:24.083Z,2.00
2019-01-10T21:34:28.919Z,2.00
2019-01-10T21:36:33.709Z,2.00
2019-01-10T21:38:38.714Z,2.00
2019-01-10T21:40:43.670Z,2.00
2019-01-10T21:42:54.108Z,1.90
2019-01-10T21:45:05.126Z,1.90
2019-01-10T21:47:10.080Z,1.80
2019-01-10T21:49:15.402Z,1.90
2019-01-10T21:51:20.430Z,1.90
2019-01-10T21:53:25.408Z,2.00
2019-01-10T21:55:30.429Z,1.90
2019-01-10T21:57:35.546Z,1.90
2019-01-10T21:59:50.543Z,2.00
2019-01-10T22:01:55.883Z,2.10
2019-01-10T22:04:01.051Z,2.10
2019-01-10T22:06:05.923Z,2.00
2019-01-10T22:08:11.137Z,2.00
2019-01-10T22:10:15.986Z,2.00
2019-01-10T22:12:21.101Z,2.00
2019-01-10T22:14:26.647Z,2.00
2019-01-10T22:16:32.038Z,2.00
2019-01-10T22:18:41.442Z,2.00
2019-01-10T22:20:47.035Z,2.00
2019-01-10T22:22:52.310Z,2.00
2019-01-10T22:24:59.904Z,2.00
2019-01-10T22:27:07.750Z,2.00
2019-01-10T22:29:12.578Z,2.10
2019-01-10T22:31:18.104Z,2.10
2019-01-10T22:33:25.918Z,2.00
2019-01-10T22:35:32.215Z,2.00
2019-01-10T22:37:37.278Z,2.00
2019-01-10T22:39:42.281Z,2.00
2019-01-10T22:41:47.493Z,2.10
2019-01-10T22:44:02.750Z,2.10
2019-01-10T22:45:59.336Z,2.10
2019-01-10T22:48:04.440Z,2.00
2019-01-10T22:50:10.750Z,2.00
2019-01-10T22:52:15.722Z,2.00
2019-01-10T22:54:20.871Z,2.00
2019-01-10T22:56:25.780Z,1.90
2019-01-10T22:58:32.201Z,1.90
2019-01-10T23:01:14.023Z,1.90
2019-01-10T23:03:21.721Z,1.90
2019-01-10T23:05:26.628Z,1.90
2019-01-10T23:07:31.891Z,1.90
2019-01-10T23:09:36.919Z,1.90
2019-01-10T23:11:41.836Z,1.90
2019-01-10T23:13:55.496Z,1.90
2019-01-10T23:16:00.670Z,1.90
2019-01-10T23:18:07.172Z,1.90
2019-01-10T23:20:12.540Z,1.80
2019-01-10T23:22:18.758Z,1.80
2019-01-10T23:24:26.854Z,1.80
2019-01-10T23:26:32.063Z,1.80
2019-01-10T23:28:43.545Z,1.80
2019-01-10T23:30:53.656Z,1.80
2019-01-10T23:33:00.438Z,1.80
2019-01-10T23:35:06.114Z,1.80
2019-01-10T23:37:17.534Z,1.80
2019-01-10T23:39:23.681Z,1.80
2019-01-10T23:41:31.655Z,1.70
2019-01-10T23:43:36.998Z,1.80
2019-01-10T23:45:42.023Z,1.70
2019-01-10T23:47:46.940Z,1.80
2019-01-10T23:49:52.078Z,1.90
2019-01-10T23:51:57.212Z,1.80
2019-01-10T23:54:05.187Z,1.80
2019-01-10T23:56:15.917Z,1.80
2019-01-10T23:58:21.249Z,1.80
